Clyde Park, Montana
Current Conditions -  °F | °C
As of 7:53 PM on Thursday 27 Nov 2014 (Local Time) from KLVM Reporting Station
Broken Clouds Broken Clouds  
Wind Chill: 55°   Ceiling: 7000
Heat Index: 55°   Visibility: 10mi
Dew Point: 31°   Wind: 40mph
Humidity: 40%   Direction: 210°SSW
Pressure: 29.82"   Gusts: 55mph
Location:  45.89°N, 110.6°W
Report Text: KLVM 280253Z AUTO 21035G48KT 10SM BKN070 13/M01 A2982 RMK AO2 PK WND 21051/0214 SLP084 T01281006 58002
Loading
Personal Weather Stations






























Interactive Weather Map New forecast layout! Learn more

10-Day Weather Forecast

Advertisements
Track Severe Weather on mobile